sensor_id;sensor_type;location;lat;lon;timestamp;P1;durP1;ratioP1;P2;durP2;ratioP2
4422;SDS011;2224;49.814;8.650;2023-02-28T00:02:14;3.50;;;3.20;;
4422;SDS011;2224;49.814;8.650;2023-02-28T00:04:42;4.47;;;4.10;;
4422;SDS011;2224;49.814;8.650;2023-02-28T00:07:07;4.00;;;3.70;;
4422;SDS011;2224;49.814;8.650;2023-02-28T00:09:33;3.83;;;3.53;;
4422;SDS011;2224;49.814;8.650;2023-02-28T00:11:58;4.20;;;3.80;;
4422;SDS011;2224;49.814;8.650;2023-02-28T00:14:23;3.60;;;3.23;;
4422;SDS011;2224;49.814;8.650;2023-02-28T00:16:48;3.90;;;3.60;;
4422;SDS011;2224;49.814;8.650;2023-02-28T00:19:14;3.63;;;3.33;;
4422;SDS011;2224;49.814;8.650;2023-02-28T00:21:39;3.63;;;3.33;;
4422;SDS011;2224;49.814;8.650;2023-02-28T00:24:05;3.47;;;3.03;;
4422;SDS011;2224;49.814;8.650;2023-02-28T00:26:31;3.83;;;3.50;;
4422;SDS011;2224;49.814;8.650;2023-02-28T00:28:56;3.83;;;3.53;;
4422;SDS011;2224;49.814;8.650;2023-02-28T00:31:22;3.50;;;3.20;;
4422;SDS011;2224;49.814;8.650;2023-02-28T00:33:47;4.40;;;4.00;;
4422;SDS011;2224;49.814;8.650;2023-02-28T00:36:12;4.93;;;3.90;;
4422;SDS011;2224;49.814;8.650;2023-02-28T00:38:39;3.97;;;3.67;;
4422;SDS011;2224;49.814;8.650;2023-02-28T00:41:05;4.25;;;3.85;;
4422;SDS011;2224;49.814;8.650;2023-02-28T00:43:31;5.07;;;4.07;;
4422;SDS011;2224;49.814;8.650;2023-02-28T00:45:57;4.10;;;3.75;;
4422;SDS011;2224;49.814;8.650;2023-02-28T00:48:22;3.70;;;3.40;;
4422;SDS011;2224;49.814;8.650;2023-02-28T00:50:48;3.97;;;3.67;;
4422;SDS011;2224;49.814;8.650;2023-02-28T00:53:14;3.75;;;3.50;;
4422;SDS011;2224;49.814;8.650;2023-02-28T00:55:40;4.10;;;3.80;;
4422;SDS011;2224;49.814;8.650;2023-02-28T00:58:05;6.10;;;4.20;;
4422;SDS011;2224;49.814;8.650;2023-02-28T01:00:30;4.40;;;4.10;;
4422;SDS011;2224;49.814;8.650;2023-02-28T01:02:55;4.67;;;4.17;;
4422;SDS011;2224;49.814;8.650;2023-02-28T01:05:21;3.43;;;3.13;;
4422;SDS011;2224;49.814;8.650;2023-02-28T01:07:46;4.93;;;4.00;;
4422;SDS011;2224;49.814;8.650;2023-02-28T01:10:11;4.90;;;4.30;;
4422;SDS011;2224;49.814;8.650;2023-02-28T01:12:37;4.73;;;3.77;;
4422;SDS011;2224;49.814;8.650;2023-02-28T01:15:03;4.20;;;3.90;;
4422;SDS011;2224;49.814;8.650;2023-02-28T01:17:29;4.32;;;3.97;;
4422;SDS011;2224;49.814;8.650;2023-02-28T01:19:54;5.07;;;4.57;;
4422;SDS011;2224;49.814;8.650;2023-02-28T01:22:20;5.07;;;4.57;;
4422;SDS011;2224;49.814;8.650;2023-02-28T01:24:46;4.90;;;4.50;;
4422;SDS011;2224;49.814;8.650;2023-02-28T01:27:11;5.40;;;4.33;;
4422;SDS011;2224;49.814;8.650;2023-02-28T01:29:36;4.27;;;3.97;;
4422;SDS011;2224;49.814;8.650;2023-02-28T01:32:02;4.97;;;4.57;;
4422;SDS011;2224;49.814;8.650;2023-02-28T01:34:27;4.57;;;4.27;;
4422;SDS011;2224;49.814;8.650;2023-02-28T01:36:52;4.60;;;4.20;;
4422;SDS011;2224;49.814;8.650;2023-02-28T01:39:18;5.17;;;4.53;;
4422;SDS011;2224;49.814;8.650;2023-02-28T01:41:43;5.50;;;5.00;;
4422;SDS011;2224;49.814;8.650;2023-02-28T01:47:12;4.32;;;4.03;;
4422;SDS011;2224;49.814;8.650;2023-02-28T01:49:37;4.00;;;3.70;;
4422;SDS011;2224;49.814;8.650;2023-02-28T01:52:03;4.90;;;4.40;;
4422;SDS011;2224;49.814;8.650;2023-02-28T01:54:29;5.27;;;4.77;;
4422;SDS011;2224;49.814;8.650;2023-02-28T01:56:57;4.55;;;4.15;;
4422;SDS011;2224;49.814;8.650;2023-02-28T01:59:37;4.78;;;4.30;;
4422;SDS011;2224;49.814;8.650;2023-02-28T02:02:05;5.00;;;4.63;;
4422;SDS011;2224;49.814;8.650;2023-02-28T02:04:32;5.00;;;4.60;;
4422;SDS011;2224;49.814;8.650;2023-02-28T02:07:01;4.97;;;4.47;;
4422;SDS011;2224;49.814;8.650;2023-02-28T02:09:27;4.27;;;3.97;;
4422;SDS011;2224;49.814;8.650;2023-02-28T02:11:52;5.73;;;5.23;;
4422;SDS011;2224;49.814;8.650;2023-02-28T02:25:42;5.00;;;4.30;;
4422;SDS011;2224;49.814;8.650;2023-02-28T02:36:40;5.00;;;4.60;;
4422;SDS011;2224;49.814;8.650;2023-02-28T02:39:11;5.40;;;4.90;;
4422;SDS011;2224;49.814;8.650;2023-02-28T02:41:49;5.50;;;5.05;;
4422;SDS011;2224;49.814;8.650;2023-02-28T02:44:24;5.05;;;4.65;;
4422;SDS011;2224;49.814;8.650;2023-02-28T02:47:15;7.72;;;5.32;;
4422;SDS011;2224;49.814;8.650;2023-02-28T02:49:44;6.22;;;5.65;;
4422;SDS011;2224;49.814;8.650;2023-02-28T02:52:12;6.13;;;5.60;;
4422;SDS011;2224;49.814;8.650;2023-02-28T02:54:43;8.18;;;6.78;;
4422;SDS011;2224;49.814;8.650;2023-02-28T02:57:17;9.50;;;6.88;;
4422;SDS011;2224;49.814;8.650;2023-02-28T02:59:54;7.20;;;6.50;;
4422;SDS011;2224;49.814;8.650;2023-02-28T03:02:21;6.68;;;6.07;;
4422;SDS011;2224;49.814;8.650;2023-02-28T03:04:51;8.47;;;7.23;;
4422;SDS011;2224;49.814;8.650;2023-02-28T03:07:18;6.90;;;6.20;;
4422;SDS011;2224;49.814;8.650;2023-02-28T03:09:50;7.07;;;5.90;;
4422;SDS011;2224;49.814;8.650;2023-02-28T03:12:17;6.97;;;6.38;;
4422;SDS011;2224;49.814;8.650;2023-02-28T03:20:23;7.20;;;6.47;;
4422;SDS011;2224;49.814;8.650;2023-02-28T03:28:19;6.93;;;6.15;;
4422;SDS011;2224;49.814;8.650;2023-02-28T03:30:51;6.97;;;6.28;;
4422;SDS011;2224;49.814;8.650;2023-02-28T03:33:28;6.45;;;5.85;;
4422;SDS011;2224;49.814;8.650;2023-02-28T03:35:57;7.00;;;6.03;;
4422;SDS011;2224;49.814;8.650;2023-02-28T03:38:27;8.02;;;5.95;;
4422;SDS011;2224;49.814;8.650;2023-02-28T03:41:19;6.32;;;5.72;;
4422;SDS011;2224;49.814;8.650;2023-02-28T03:43:49;7.10;;;6.50;;
4422;SDS011;2224;49.814;8.650;2023-02-28T03:46:31;7.18;;;6.18;;
4422;SDS011;2224;49.814;8.650;2023-02-28T03:49:15;8.77;;;5.88;;
4422;SDS011;2224;49.814;8.650;2023-02-28T03:51:42;6.95;;;6.32;;
4422;SDS011;2224;49.814;8.650;2023-02-28T03:54:10;10.70;;;7.43;;
4422;SDS011;2224;49.814;8.650;2023-02-28T03:56:48;8.00;;;7.00;;
4422;SDS011;2224;49.814;8.650;2023-02-28T03:59:28;11.20;;;8.27;;
4422;SDS011;2224;49.814;8.650;2023-02-28T04:01:55;15.43;;;9.70;;
4422;SDS011;2224;49.814;8.650;2023-02-28T04:04:23;14.32;;;10.52;;
4422;SDS011;2224;49.814;8.650;2023-02-28T04:06:49;17.27;;;10.60;;
4422;SDS011;2224;49.814;8.650;2023-02-28T04:09:16;18.25;;;12.48;;
4422;SDS011;2224;49.814;8.650;2023-02-28T04:11:42;16.43;;;11.67;;
4422;SDS011;2224;49.814;8.650;2023-02-28T04:14:09;18.52;;;11.00;;
4422;SDS011;2224;49.814;8.650;2023-02-28T04:16:36;15.90;;;11.47;;
4422;SDS011;2224;49.814;8.650;2023-02-28T04:19:03;13.35;;;9.73;;
4422;SDS011;2224;49.814;8.650;2023-02-28T04:21:51;16.92;;;11.40;;
4422;SDS011;2224;49.814;8.650;2023-02-28T04:24:20;12.85;;;9.23;;
4422;SDS011;2224;49.814;8.650;2023-02-28T04:26:47;10.15;;;9.15;;
4422;SDS011;2224;49.814;8.650;2023-02-28T04:29:18;11.18;;;9.50;;
4422;SDS011;2224;49.814;8.650;2023-02-28T04:31:53;11.35;;;8.40;;
4422;SDS011;2224;49.814;8.650;2023-02-28T04:34:20;8.45;;;7.60;;
4422;SDS011;2224;49.814;8.650;2023-02-28T04:36:46;8.98;;;8.05;;
4422;SDS011;2224;49.814;8.650;2023-02-28T04:39:13;8.65;;;7.25;;
4422;SDS011;2224;49.814;8.650;2023-02-28T04:41:40;9.10;;;8.15;;
4422;SDS011;2224;49.814;8.650;2023-02-28T04:44:05;8.53;;;7.63;;
4422;SDS011;2224;49.814;8.650;2023-02-28T04:46:30;8.90;;;6.80;;
4422;SDS011;2224;49.814;8.650;2023-02-28T04:48:56;10.20;;;8.10;;
4422;SDS011;2224;49.814;8.650;2023-02-28T04:51:21;8.13;;;5.97;;
4422;SDS011;2224;49.814;8.650;2023-02-28T04:53:47;9.95;;;7.55;;
4422;SDS011;2224;49.814;8.650;2023-02-28T04:56:14;8.27;;;7.47;;
4422;SDS011;2224;49.814;8.650;2023-02-28T04:58:40;7.45;;;6.72;;
4422;SDS011;2224;49.814;8.650;2023-02-28T05:01:07;9.17;;;6.83;;
4422;SDS011;2224;49.814;8.650;2023-02-28T05:03:41;7.50;;;6.75;;
4422;SDS011;2224;49.814;8.650;2023-02-28T05:06:07;6.97;;;6.22;;
4422;SDS011;2224;49.814;8.650;2023-02-28T05:08:33;8.65;;;7.75;;
4422;SDS011;2224;49.814;8.650;2023-02-28T05:10:59;7.60;;;6.93;;
4422;SDS011;2224;49.814;8.650;2023-02-28T05:13:26;7.45;;;6.78;;
4422;SDS011;2224;49.814;8.650;2023-02-28T05:15:51;7.10;;;6.50;;
4422;SDS011;2224;49.814;8.650;2023-02-28T05:18:16;8.10;;;7.30;;
4422;SDS011;2224;49.814;8.650;2023-02-28T05:20:42;7.77;;;6.60;;
4422;SDS011;2224;49.814;8.650;2023-02-28T05:23:08;7.27;;;6.57;;
4422;SDS011;2224;49.814;8.650;2023-02-28T05:25:35;8.00;;;6.85;;
4422;SDS011;2224;49.814;8.650;2023-02-28T05:28:00;8.07;;;7.27;;
4422;SDS011;2224;49.814;8.650;2023-02-28T05:30:26;9.27;;;7.57;;
4422;SDS011;2224;49.814;8.650;2023-02-28T05:32:51;7.07;;;6.47;;
4422;SDS011;2224;49.814;8.650;2023-02-28T05:35:16;7.73;;;7.13;;
4422;SDS011;2224;49.814;8.650;2023-02-28T05:37:42;7.67;;;6.97;;
4422;SDS011;2224;49.814;8.650;2023-02-28T05:40:07;7.63;;;7.00;;
4422;SDS011;2224;49.814;8.650;2023-02-28T05:42:36;7.30;;;6.70;;
4422;SDS011;2224;49.814;8.650;2023-02-28T05:45:02;6.83;;;6.13;;
4422;SDS011;2224;49.814;8.650;2023-02-28T05:47:28;8.20;;;7.30;;
4422;SDS011;2224;49.814;8.650;2023-02-28T05:49:53;7.70;;;7.00;;
4422;SDS011;2224;49.814;8.650;2023-02-28T05:52:19;9.53;;;7.33;;
4422;SDS011;2224;49.814;8.650;2023-02-28T05:54:45;8.40;;;6.90;;
4422;SDS011;2224;49.814;8.650;2023-02-28T05:57:11;7.50;;;6.72;;
4422;SDS011;2224;49.814;8.650;2023-02-28T05:59:36;8.37;;;7.67;;
4422;SDS011;2224;49.814;8.650;2023-02-28T06:02:04;7.25;;;6.65;;
4422;SDS011;2224;49.814;8.650;2023-02-28T06:04:30;8.77;;;7.63;;
4422;SDS011;2224;49.814;8.650;2023-02-28T06:06:56;7.33;;;6.60;;
4422;SDS011;2224;49.814;8.650;2023-02-28T06:09:22;7.30;;;6.60;;
4422;SDS011;2224;49.814;8.650;2023-02-28T06:11:47;9.33;;;7.57;;
4422;SDS011;2224;49.814;8.650;2023-02-28T06:14:17;7.70;;;7.03;;
4422;SDS011;2224;49.814;8.650;2023-02-28T06:16:43;8.32;;;6.55;;
4422;SDS011;2224;49.814;8.650;2023-02-28T06:19:08;7.93;;;7.13;;
4422;SDS011;2224;49.814;8.650;2023-02-28T06:21:34;6.50;;;5.93;;
4422;SDS011;2224;49.814;8.650;2023-02-28T06:24:00;8.47;;;7.13;;
4422;SDS011;2224;49.814;8.650;2023-02-28T06:26:25;7.63;;;6.87;;
4422;SDS011;2224;49.814;8.650;2023-02-28T06:28:51;8.83;;;6.40;;
4422;SDS011;2224;49.814;8.650;2023-02-28T06:31:17;8.70;;;7.37;;
4422;SDS011;2224;49.814;8.650;2023-02-28T06:33:43;8.45;;;7.65;;
4422;SDS011;2224;49.814;8.650;2023-02-28T06:36:10;7.25;;;6.65;;
4422;SDS011;2224;49.814;8.650;2023-02-28T06:38:36;7.30;;;6.60;;
4422;SDS011;2224;49.814;8.650;2023-02-28T06:41:02;7.20;;;6.60;;
4422;SDS011;2224;49.814;8.650;2023-02-28T06:43:29;7.50;;;6.80;;
4422;SDS011;2224;49.814;8.650;2023-02-28T06:45:56;6.68;;;6.07;;
4422;SDS011;2224;49.814;8.650;2023-02-28T06:48:22;8.10;;;7.22;;
4422;SDS011;2224;49.814;8.650;2023-02-28T06:50:48;7.80;;;7.07;;
4422;SDS011;2224;49.814;8.650;2023-02-28T06:53:14;7.83;;;7.03;;
4422;SDS011;2224;49.814;8.650;2023-02-28T06:55:40;7.87;;;7.17;;
4422;SDS011;2224;49.814;8.650;2023-02-28T06:58:06;6.72;;;5.70;;
4422;SDS011;2224;49.814;8.650;2023-02-28T07:00:42;8.82;;;7.60;;
4422;SDS011;2224;49.814;8.650;2023-02-28T07:03:08;7.45;;;6.85;;
4422;SDS011;2224;49.814;8.650;2023-02-28T07:05:35;8.30;;;7.37;;
4422;SDS011;2224;49.814;8.650;2023-02-28T07:08:04;7.97;;;7.22;;
4422;SDS011;2224;49.814;8.650;2023-02-28T07:10:30;8.98;;;8.15;;
4422;SDS011;2224;49.814;8.650;2023-02-28T07:12:57;8.20;;;7.20;;
4422;SDS011;2224;49.814;8.650;2023-02-28T07:15:22;6.97;;;6.37;;
4422;SDS011;2224;49.814;8.650;2023-02-28T07:17:48;7.50;;;6.70;;
4422;SDS011;2224;49.814;8.650;2023-02-28T07:20:13;6.57;;;5.97;;
4422;SDS011;2224;49.814;8.650;2023-02-28T07:22:38;7.83;;;7.00;;
4422;SDS011;2224;49.814;8.650;2023-02-28T07:25:04;7.50;;;6.80;;
4422;SDS011;2224;49.814;8.650;2023-02-28T07:27:31;6.28;;;5.75;;
4422;SDS011;2224;49.814;8.650;2023-02-28T07:29:56;6.13;;;5.63;;
4422;SDS011;2224;49.814;8.650;2023-02-28T07:32:21;7.47;;;6.53;;
4422;SDS011;2224;49.814;8.650;2023-02-28T07:34:47;7.43;;;6.63;;
4422;SDS011;2224;49.814;8.650;2023-02-28T07:37:13;6.05;;;5.38;;
4422;SDS011;2224;49.814;8.650;2023-02-28T07:39:39;6.50;;;5.90;;
4422;SDS011;2224;49.814;8.650;2023-02-28T07:42:07;5.80;;;5.30;;
4422;SDS011;2224;49.814;8.650;2023-02-28T07:44:35;5.88;;;5.28;;
4422;SDS011;2224;49.814;8.650;2023-02-28T07:47:05;6.93;;;6.10;;
4422;SDS011;2224;49.814;8.650;2023-02-28T07:49:31;6.15;;;5.55;;
4422;SDS011;2224;49.814;8.650;2023-02-28T07:51:57;6.40;;;5.30;;
4422;SDS011;2224;49.814;8.650;2023-02-28T07:54:22;6.63;;;5.57;;
4422;SDS011;2224;49.814;8.650;2023-02-28T07:56:47;6.13;;;5.50;;
4422;SDS011;2224;49.814;8.650;2023-02-28T07:59:12;5.53;;;5.03;;
4422;SDS011;2224;49.814;8.650;2023-02-28T08:01:38;6.50;;;5.73;;
4422;SDS011;2224;49.814;8.650;2023-02-28T08:04:03;9.20;;;5.50;;
4422;SDS011;2224;49.814;8.650;2023-02-28T08:06:29;6.20;;;5.60;;
4422;SDS011;2224;49.814;8.650;2023-02-28T08:08:54;5.37;;;4.93;;
4422;SDS011;2224;49.814;8.650;2023-02-28T08:11:21;6.10;;;5.53;;
4422;SDS011;2224;49.814;8.650;2023-02-28T08:13:46;5.57;;;5.07;;
4422;SDS011;2224;49.814;8.650;2023-02-28T08:16:12;5.90;;;5.00;;
4422;SDS011;2224;49.814;8.650;2023-02-28T08:18:42;5.35;;;4.85;;
4422;SDS011;2224;49.814;8.650;2023-02-28T08:21:08;5.50;;;5.00;;
4422;SDS011;2224;49.814;8.650;2023-02-28T08:23:34;5.50;;;5.00;;
4422;SDS011;2224;49.814;8.650;2023-02-28T08:26:00;5.67;;;5.10;;
4422;SDS011;2224;49.814;8.650;2023-02-28T08:28:25;6.20;;;5.23;;
4422;SDS011;2224;49.814;8.650;2023-02-28T08:30:50;5.57;;;5.07;;
4422;SDS011;2224;49.814;8.650;2023-02-28T08:33:15;5.50;;;5.07;;
4422;SDS011;2224;49.814;8.650;2023-02-28T08:35:41;5.60;;;4.93;;
4422;SDS011;2224;49.814;8.650;2023-02-28T08:38:06;6.40;;;5.03;;
4422;SDS011;2224;49.814;8.650;2023-02-28T08:40:31;7.23;;;5.37;;
4422;SDS011;2224;49.814;8.650;2023-02-28T08:42:57;5.47;;;4.90;;
4422;SDS011;2224;49.814;8.650;2023-02-28T08:45:23;5.90;;;4.80;;
4422;SDS011;2224;49.814;8.650;2023-02-28T08:47:48;6.50;;;5.27;;
4422;SDS011;2224;49.814;8.650;2023-02-28T08:50:13;5.53;;;5.13;;
4422;SDS011;2224;49.814;8.650;2023-02-28T08:52:41;6.45;;;5.32;;
4422;SDS011;2224;49.814;8.650;2023-02-28T08:55:07;6.07;;;4.88;;
4422;SDS011;2224;49.814;8.650;2023-02-28T08:57:34;6.03;;;5.43;;
4422;SDS011;2224;49.814;8.650;2023-02-28T08:59:59;6.63;;;5.87;;
4422;SDS011;2224;49.814;8.650;2023-02-28T09:02:25;5.17;;;4.60;;
4422;SDS011;2224;49.814;8.650;2023-02-28T09:04:50;7.10;;;5.87;;
4422;SDS011;2224;49.814;8.650;2023-02-28T09:07:16;7.07;;;6.30;;
4422;SDS011;2224;49.814;8.650;2023-02-28T09:09:41;7.63;;;6.03;;
4422;SDS011;2224;49.814;8.650;2023-02-28T09:12:19;8.02;;;6.75;;
4422;SDS011;2224;49.814;8.650;2023-02-28T09:14:53;8.35;;;6.07;;
4422;SDS011;2224;49.814;8.650;2023-02-28T09:17:21;7.18;;;6.47;;
4422;SDS011;2224;49.814;8.650;2023-02-28T09:19:47;8.07;;;7.00;;
4422;SDS011;2224;49.814;8.650;2023-02-28T09:22:13;8.48;;;7.63;;
4422;SDS011;2224;49.814;8.650;2023-02-28T09:24:39;7.40;;;6.70;;
4422;SDS011;2224;49.814;8.650;2023-02-28T09:27:04;7.67;;;6.87;;
4422;SDS011;2224;49.814;8.650;2023-02-28T09:29:33;8.93;;;7.80;;
4422;SDS011;2224;49.814;8.650;2023-02-28T09:31:58;8.25;;;7.45;;
4422;SDS011;2224;49.814;8.650;2023-02-28T09:34:25;9.23;;;7.90;;
4422;SDS011;2224;49.814;8.650;2023-02-28T09:36:51;10.68;;;7.13;;
4422;SDS011;2224;49.814;8.650;2023-02-28T09:39:19;8.55;;;7.57;;
4422;SDS011;2224;49.814;8.650;2023-02-28T09:41:47;10.20;;;7.85;;
4422;SDS011;2224;49.814;8.650;2023-02-28T09:44:24;9.52;;;7.43;;
4422;SDS011;2224;49.814;8.650;2023-02-28T09:46:55;9.13;;;8.20;;
4422;SDS011;2224;49.814;8.650;2023-02-28T09:49:25;7.72;;;6.63;;
4422;SDS011;2224;49.814;8.650;2023-02-28T09:54:36;8.65;;;7.13;;
4422;SDS011;2224;49.814;8.650;2023-02-28T10:04:50;8.77;;;7.50;;
4422;SDS011;2224;49.814;8.650;2023-02-28T10:12:58;8.30;;;7.40;;
4422;SDS011;2224;49.814;8.650;2023-02-28T10:15:25;10.02;;;7.78;;
4422;SDS011;2224;49.814;8.650;2023-02-28T10:17:57;9.95;;;7.68;;
4422;SDS011;2224;49.814;8.650;2023-02-28T10:20:24;8.77;;;7.25;;
4422;SDS011;2224;49.814;8.650;2023-02-28T10:26:04;7.93;;;7.13;;
4422;SDS011;2224;49.814;8.650;2023-02-28T10:28:35;9.38;;;7.40;;
4422;SDS011;2224;49.814;8.650;2023-02-28T10:31:00;9.90;;;8.20;;
4422;SDS011;2224;49.814;8.650;2023-02-28T10:33:35;9.50;;;7.30;;
4422;SDS011;2224;49.814;8.650;2023-02-28T10:36:01;9.20;;;7.28;;
4422;SDS011;2224;49.814;8.650;2023-02-28T10:38:28;10.25;;;8.23;;
4422;SDS011;2224;49.814;8.650;2023-02-28T10:41:08;8.75;;;7.85;;
4422;SDS011;2224;49.814;8.650;2023-02-28T10:43:36;11.50;;;7.57;;
4422;SDS011;2224;49.814;8.650;2023-02-28T10:46:13;9.07;;;7.65;;
4422;SDS011;2224;49.814;8.650;2023-02-28T10:48:57;9.05;;;7.53;;
4422;SDS011;2224;49.814;8.650;2023-02-28T10:51:26;7.85;;;7.15;;
4422;SDS011;2224;49.814;8.650;2023-02-28T10:54:00;8.65;;;7.57;;
4422;SDS011;2224;49.814;8.650;2023-02-28T10:56:25;7.60;;;6.83;;
4422;SDS011;2224;49.814;8.650;2023-02-28T10:58:52;9.53;;;8.23;;
4422;SDS011;2224;49.814;8.650;2023-02-28T11:03:56;8.05;;;7.18;;
4422;SDS011;2224;49.814;8.650;2023-02-28T11:06:23;10.47;;;6.70;;
4422;SDS011;2224;49.814;8.650;2023-02-28T11:08:58;8.85;;;7.57;;
4422;SDS011;2224;49.814;8.650;2023-02-28T11:11:26;8.13;;;7.28;;
4422;SDS011;2224;49.814;8.650;2023-02-28T11:13:54;8.05;;;7.25;;
4422;SDS011;2224;49.814;8.650;2023-02-28T11:16:22;8.10;;;7.20;;
4422;SDS011;2224;49.814;8.650;2023-02-28T11:18:57;8.35;;;7.55;;
4422;SDS011;2224;49.814;8.650;2023-02-28T11:23:53;8.98;;;8.07;;
4422;SDS011;2224;49.814;8.650;2023-02-28T11:26:51;9.60;;;7.88;;
4422;SDS011;2224;49.814;8.650;2023-02-28T11:29:20;9.05;;;7.70;;
4422;SDS011;2224;49.814;8.650;2023-02-28T11:32:04;10.03;;;7.50;;
4422;SDS011;2224;49.814;8.650;2023-02-28T11:34:44;8.10;;;6.97;;
4422;SDS011;2224;49.814;8.650;2023-02-28T11:37:13;8.40;;;7.25;;
4422;SDS011;2224;49.814;8.650;2023-02-28T11:39:42;8.40;;;7.60;;
4422;SDS011;2224;49.814;8.650;2023-02-28T11:52:37;8.70;;;7.83;;
4422;SDS011;2224;49.814;8.650;2023-02-28T11:55:20;9.00;;;7.97;;
4422;SDS011;2224;49.814;8.650;2023-02-28T12:05:44;8.90;;;7.77;;
4422;SDS011;2224;49.814;8.650;2023-02-28T12:16:41;8.50;;;7.60;;
4422;SDS011;2224;49.814;8.650;2023-02-28T12:22:22;9.30;;;8.40;;
4422;SDS011;2224;49.814;8.650;2023-02-28T12:27:38;8.20;;;7.00;;
4422;SDS011;2224;49.814;8.650;2023-02-28T12:30:08;9.00;;;8.10;;
4422;SDS011;2224;49.814;8.650;2023-02-28T12:32:41;8.17;;;7.13;;
4422;SDS011;2224;49.814;8.650;2023-02-28T12:37:38;11.10;;;7.57;;
4422;SDS011;2224;49.814;8.650;2023-02-28T12:42:42;12.50;;;8.00;;
4422;SDS011;2224;49.814;8.650;2023-02-28T12:45:21;8.80;;;7.90;;
4422;SDS011;2224;49.814;8.650;2023-02-28T12:47:50;10.40;;;8.43;;
4422;SDS011;2224;49.814;8.650;2023-02-28T12:50:16;8.47;;;7.47;;
4422;SDS011;2224;49.814;8.650;2023-02-28T12:58:14;7.60;;;6.90;;
4422;SDS011;2224;49.814;8.650;2023-02-28T13:03:41;13.13;;;8.90;;
4422;SDS011;2224;49.814;8.650;2023-02-28T13:06:28;9.00;;;8.10;;
4422;SDS011;2224;49.814;8.650;2023-02-28T13:09:15;9.30;;;8.33;;
4422;SDS011;2224;49.814;8.650;2023-02-28T13:14:20;9.37;;;8.33;;
4422;SDS011;2224;49.814;8.650;2023-02-28T13:17:01;9.30;;;8.27;;
4422;SDS011;2224;49.814;8.650;2023-02-28T13:19:35;9.50;;;8.60;;
4422;SDS011;2224;49.814;8.650;2023-02-28T13:22:02;9.40;;;8.60;;
4422;SDS011;2224;49.814;8.650;2023-02-28T13:29:34;9.43;;;8.53;;
4422;SDS011;2224;49.814;8.650;2023-02-28T13:34:37;9.57;;;8.67;;
4422;SDS011;2224;49.814;8.650;2023-02-28T13:47:36;9.47;;;8.57;;
4422;SDS011;2224;49.814;8.650;2023-02-28T13:50:37;8.43;;;7.63;;
4422;SDS011;2224;49.814;8.650;2023-02-28T14:03:46;9.37;;;8.30;;
4422;SDS011;2224;49.814;8.650;2023-02-28T14:06:23;9.37;;;8.47;;
4422;SDS011;2224;49.814;8.650;2023-02-28T14:08:55;8.73;;;7.83;;
4422;SDS011;2224;49.814;8.650;2023-02-28T14:11:25;8.60;;;7.70;;
4422;SDS011;2224;49.814;8.650;2023-02-28T14:14:01;9.60;;;8.70;;
4422;SDS011;2224;49.814;8.650;2023-02-28T14:16:27;9.83;;;8.40;;
4422;SDS011;2224;49.814;8.650;2023-02-28T14:19:02;8.27;;;7.37;;
4422;SDS011;2224;49.814;8.650;2023-02-28T14:32:47;9.60;;;8.60;;
4422;SDS011;2224;49.814;8.650;2023-02-28T14:37:51;8.90;;;8.00;;
4422;SDS011;2224;49.814;8.650;2023-02-28T14:40:17;8.00;;;7.07;;
4422;SDS011;2224;49.814;8.650;2023-02-28T14:42:59;8.73;;;7.87;;
4422;SDS011;2224;49.814;8.650;2023-02-28T14:45:29;7.93;;;6.87;;
4422;SDS011;2224;49.814;8.650;2023-02-28T14:47:55;10.83;;;7.93;;
4422;SDS011;2224;49.814;8.650;2023-02-28T14:50:32;9.40;;;8.50;;
4422;SDS011;2224;49.814;8.650;2023-02-28T14:52:59;9.03;;;8.13;;
4422;SDS011;2224;49.814;8.650;2023-02-28T14:55:34;8.37;;;6.77;;
4422;SDS011;2224;49.814;8.650;2023-02-28T14:58:01;7.97;;;7.27;;
4422;SDS011;2224;49.814;8.650;2023-02-28T15:00:31;8.70;;;7.80;;
4422;SDS011;2224;49.814;8.650;2023-02-28T15:02:59;8.60;;;7.57;;
4422;SDS011;2224;49.814;8.650;2023-02-28T15:05:29;8.47;;;7.67;;
4422;SDS011;2224;49.814;8.650;2023-02-28T15:08:06;8.67;;;7.70;;
4422;SDS011;2224;49.814;8.650;2023-02-28T15:10:36;9.50;;;7.00;;
4422;SDS011;2224;49.814;8.650;2023-02-28T15:13:04;8.50;;;7.70;;
4422;SDS011;2224;49.814;8.650;2023-02-28T15:18:06;8.30;;;7.40;;
4422;SDS011;2224;49.814;8.650;2023-02-28T15:20:32;8.93;;;8.00;;
4422;SDS011;2224;49.814;8.650;2023-02-28T15:22:58;8.13;;;7.27;;
4422;SDS011;2224;49.814;8.650;2023-02-28T15:25:24;9.97;;;8.90;;
4422;SDS011;2224;49.814;8.650;2023-02-28T15:27:50;9.53;;;8.33;;
4422;SDS011;2224;49.814;8.650;2023-02-28T15:30:20;8.40;;;7.27;;
4422;SDS011;2224;49.814;8.650;2023-02-28T15:33:16;8.60;;;7.50;;
4422;SDS011;2224;49.814;8.650;2023-02-28T15:35:43;8.90;;;8.00;;
4422;SDS011;2224;49.814;8.650;2023-02-28T15:38:25;9.90;;;8.90;;
4422;SDS011;2224;49.814;8.650;2023-02-28T15:40:52;9.80;;;7.50;;
4422;SDS011;2224;49.814;8.650;2023-02-28T15:43:29;9.17;;;8.13;;
4422;SDS011;2224;49.814;8.650;2023-02-28T15:46:06;8.70;;;7.40;;
4422;SDS011;2224;49.814;8.650;2023-02-28T15:48:33;8.40;;;7.50;;
4422;SDS011;2224;49.814;8.650;2023-02-28T15:53:41;12.00;;;9.20;;
4422;SDS011;2224;49.814;8.650;2023-02-28T15:56:20;10.23;;;7.60;;
4422;SDS011;2224;49.814;8.650;2023-02-28T15:58:48;10.37;;;8.80;;
4422;SDS011;2224;49.814;8.650;2023-02-28T16:01:19;10.07;;;8.03;;
4422;SDS011;2224;49.814;8.650;2023-02-28T16:03:49;16.83;;;10.70;;
4422;SDS011;2224;49.814;8.650;2023-02-28T16:08:41;9.00;;;8.20;;
4422;SDS011;2224;49.814;8.650;2023-02-28T16:11:08;8.20;;;7.40;;
4422;SDS011;2224;49.814;8.650;2023-02-28T16:13:34;8.73;;;7.80;;
4422;SDS011;2224;49.814;8.650;2023-02-28T16:15:59;9.80;;;8.53;;
4422;SDS011;2224;49.814;8.650;2023-02-28T16:18:26;13.60;;;9.37;;
4422;SDS011;2224;49.814;8.650;2023-02-28T16:20:51;12.27;;;8.77;;
4422;SDS011;2224;49.814;8.650;2023-02-28T16:23:17;13.30;;;9.40;;
4422;SDS011;2224;49.814;8.650;2023-02-28T16:25:42;8.23;;;7.43;;
4422;SDS011;2224;49.814;8.650;2023-02-28T16:28:23;14.60;;;10.43;;
4422;SDS011;2224;49.814;8.650;2023-02-28T16:30:51;12.33;;;8.93;;
4422;SDS011;2224;49.814;8.650;2023-02-28T16:33:17;8.97;;;8.00;;
4422;SDS011;2224;49.814;8.650;2023-02-28T16:35:42;10.10;;;8.40;;
4422;SDS011;2224;49.814;8.650;2023-02-28T16:38:07;12.33;;;9.10;;
4422;SDS011;2224;49.814;8.650;2023-02-28T16:40:33;11.10;;;9.00;;
4422;SDS011;2224;49.814;8.650;2023-02-28T16:42:59;13.70;;;10.13;;
4422;SDS011;2224;49.814;8.650;2023-02-28T16:45:26;9.70;;;8.70;;
4422;SDS011;2224;49.814;8.650;2023-02-28T16:47:52;11.90;;;9.20;;
4422;SDS011;2224;49.814;8.650;2023-02-28T16:50:20;19.53;;;12.10;;
4422;SDS011;2224;49.814;8.650;2023-02-28T16:52:46;10.23;;;9.00;;
4422;SDS011;2224;49.814;8.650;2023-02-28T16:55:12;14.30;;;9.87;;
4422;SDS011;2224;49.814;8.650;2023-02-28T16:57:38;11.67;;;9.20;;
4422;SDS011;2224;49.814;8.650;2023-02-28T17:00:04;11.20;;;8.63;;
4422;SDS011;2224;49.814;8.650;2023-02-28T17:02:32;11.77;;;8.00;;
4422;SDS011;2224;49.814;8.650;2023-02-28T17:04:58;11.40;;;8.57;;
4422;SDS011;2224;49.814;8.650;2023-02-28T17:07:23;9.73;;;8.43;;
4422;SDS011;2224;49.814;8.650;2023-02-28T17:09:48;10.17;;;8.57;;
4422;SDS011;2224;49.814;8.650;2023-02-28T17:12:13;10.80;;;8.70;;
4422;SDS011;2224;49.814;8.650;2023-02-28T17:14:39;12.37;;;9.20;;
4422;SDS011;2224;49.814;8.650;2023-02-28T17:17:05;10.33;;;8.63;;
4422;SDS011;2224;49.814;8.650;2023-02-28T17:19:31;8.43;;;7.60;;
4422;SDS011;2224;49.814;8.650;2023-02-28T17:21:56;12.80;;;9.63;;
4422;SDS011;2224;49.814;8.650;2023-02-28T17:24:22;13.17;;;9.23;;
4422;SDS011;2224;49.814;8.650;2023-02-28T17:26:47;10.10;;;8.10;;
4422;SDS011;2224;49.814;8.650;2023-02-28T17:29:13;13.90;;;9.57;;
4422;SDS011;2224;49.814;8.650;2023-02-28T17:31:40;15.03;;;10.20;;
4422;SDS011;2224;49.814;8.650;2023-02-28T17:34:05;10.23;;;9.20;;
4422;SDS011;2224;49.814;8.650;2023-02-28T17:36:31;11.93;;;9.30;;
4422;SDS011;2224;49.814;8.650;2023-02-28T17:38:58;11.47;;;9.63;;
4422;SDS011;2224;49.814;8.650;2023-02-28T17:41:24;11.53;;;10.23;;
4422;SDS011;2224;49.814;8.650;2023-02-28T17:43:51;10.60;;;8.90;;
4422;SDS011;2224;49.814;8.650;2023-02-28T17:46:18;11.40;;;9.03;;
4422;SDS011;2224;49.814;8.650;2023-02-28T17:48:46;12.33;;;10.33;;
4422;SDS011;2224;49.814;8.650;2023-02-28T17:51:12;11.97;;;9.90;;
4422;SDS011;2224;49.814;8.650;2023-02-28T17:53:38;11.50;;;9.93;;
4422;SDS011;2224;49.814;8.650;2023-02-28T17:56:03;16.00;;;10.60;;
4422;SDS011;2224;49.814;8.650;2023-02-28T17:58:29;11.17;;;9.97;;